sensor_id;sensor_type;location;lat;lon;timestamp;pressure;altitude;pressure_sealevel;temperature
71960;BMP280;59832;51.146;14.024;2024-01-15T00:01:30;96290.16;;;0.38
71960;BMP280;59832;51.146;14.024;2024-01-15T00:03:56;96280.88;;;0.39
71960;BMP280;59832;51.146;14.024;2024-01-15T00:06:23;96287.66;;;0.38
71960;BMP280;59832;51.146;14.024;2024-01-15T00:08:49;96264.41;;;0.38
71960;BMP280;59832;51.146;14.024;2024-01-15T00:11:16;96267.88;;;0.33
71960;BMP280;59832;51.146;14.024;2024-01-15T00:13:42;96266.59;;;0.39
71960;BMP280;59832;51.146;14.024;2024-01-15T00:16:09;96265.75;;;0.35
71960;BMP280;59832;51.146;14.024;2024-01-15T00:18:36;96268.69;;;0.37
71960;BMP280;59832;51.146;14.024;2024-01-15T00:21:03;96261.59;;;0.39
71960;BMP280;59832;51.146;14.024;2024-01-15T00:23:30;96259.81;;;0.40
71960;BMP280;59832;51.146;14.024;2024-01-15T00:25:56;96268.47;;;0.43
71960;BMP280;59832;51.146;14.024;2024-01-15T00:28:22;96253.97;;;0.36
71960;BMP280;59832;51.146;14.024;2024-01-15T00:30:49;96249.81;;;0.40
71960;BMP280;59832;51.146;14.024;2024-01-15T00:33:16;96251.72;;;0.31
71960;BMP280;59832;51.146;14.024;2024-01-15T00:35:43;96239.63;;;0.33
71960;BMP280;59832;51.146;14.024;2024-01-15T00:38:09;96233.78;;;0.29
71960;BMP280;59832;51.146;14.024;2024-01-15T00:40:35;96242.75;;;0.30
71960;BMP280;59832;51.146;14.024;2024-01-15T00:43:02;96236.81;;;0.34
71960;BMP280;59832;51.146;14.024;2024-01-15T00:45:28;96256.41;;;0.32
71960;BMP280;59832;51.146;14.024;2024-01-15T00:47:55;96234.09;;;0.27
71960;BMP280;59832;51.146;14.024;2024-01-15T00:50:23;96227.84;;;0.33
71960;BMP280;59832;51.146;14.024;2024-01-15T00:52:49;96231.78;;;0.34
71960;BMP280;59832;51.146;14.024;2024-01-15T00:55:15;96230.34;;;0.33
71960;BMP280;59832;51.146;14.024;2024-01-15T00:57:42;96229.94;;;0.31
71960;BMP280;59832;51.146;14.024;2024-01-15T01:00:09;96224.28;;;0.34
71960;BMP280;59832;51.146;14.024;2024-01-15T01:02:35;96213.16;;;0.32
71960;BMP280;59832;51.146;14.024;2024-01-15T01:05:02;96207.63;;;0.26
71960;BMP280;59832;51.146;14.024;2024-01-15T01:07:29;96207.09;;;0.33
71960;BMP280;59832;51.146;14.024;2024-01-15T01:09:56;96203.03;;;0.28
71960;BMP280;59832;51.146;14.024;2024-01-15T01:12:22;96205.34;;;0.21
71960;BMP280;59832;51.146;14.024;2024-01-15T01:14:49;96216.28;;;0.29
71960;BMP280;59832;51.146;14.024;2024-01-15T01:17:15;96214.53;;;0.17
71960;BMP280;59832;51.146;14.024;2024-01-15T01:19:42;96211.69;;;0.19
71960;BMP280;59832;51.146;14.024;2024-01-15T01:22:09;96200.03;;;0.23
71960;BMP280;59832;51.146;14.024;2024-01-15T01:24:35;96196.06;;;0.22
71960;BMP280;59832;51.146;14.024;2024-01-15T01:27:02;96200.97;;;0.18
71960;BMP280;59832;51.146;14.024;2024-01-15T01:29:29;96196.38;;;0.20
71960;BMP280;59832;51.146;14.024;2024-01-15T01:31:55;96188.06;;;0.16
71960;BMP280;59832;51.146;14.024;2024-01-15T01:34:22;96191.63;;;0.15
71960;BMP280;59832;51.146;14.024;2024-01-15T01:36:49;96188.16;;;0.20
71960;BMP280;59832;51.146;14.024;2024-01-15T01:39:16;96188.88;;;0.20
71960;BMP280;59832;51.146;14.024;2024-01-15T01:41:42;96189.53;;;0.17
71960;BMP280;59832;51.146;14.024;2024-01-15T01:44:09;96178.38;;;0.15
71960;BMP280;59832;51.146;14.024;2024-01-15T01:46:36;96182.53;;;0.11
71960;BMP280;59832;51.146;14.024;2024-01-15T01:49:09;96174.09;;;0.15
71960;BMP280;59832;51.146;14.024;2024-01-15T01:51:37;96173.38;;;0.15
71960;BMP280;59832;51.146;14.024;2024-01-15T01:54:06;96182.53;;;0.11
71960;BMP280;59832;51.146;14.024;2024-01-15T01:56:34;96179.31;;;0.10
71960;BMP280;59832;51.146;14.024;2024-01-15T01:59:02;96178.81;;;0.05
71960;BMP280;59832;51.146;14.024;2024-01-15T02:01:31;96176.81;;;0.10
71960;BMP280;59832;51.146;14.024;2024-01-15T02:03:58;96186.81;;;0.10
71960;BMP280;59832;51.146;14.024;2024-01-15T02:06:24;96187.44;;;0.07
71960;BMP280;59832;51.146;14.024;2024-01-15T02:08:51;96186.81;;;0.10
71960;BMP280;59832;51.146;14.024;2024-01-15T02:11:17;96176.00;;;0.06
71960;BMP280;59832;51.146;14.024;2024-01-15T02:13:44;96173.91;;;0.08
71960;BMP280;59832;51.146;14.024;2024-01-15T02:16:11;96168.91;;;0.08
71960;BMP280;59832;51.146;14.024;2024-01-15T02:18:44;96182.13;;;0.09
71960;BMP280;59832;51.146;14.024;2024-01-15T02:21:11;96179.84;;;0.16
71960;BMP280;59832;51.146;14.024;2024-01-15T02:23:38;96169.72;;;0.12
71960;BMP280;59832;51.146;14.024;2024-01-15T02:26:05;96163.78;;;0.05
71960;BMP280;59832;51.146;14.024;2024-01-15T02:28:32;96159.94;;;0.07
71960;BMP280;59832;51.146;14.024;2024-01-15T02:30:59;96159.22;;;0.07
71960;BMP280;59832;51.146;14.024;2024-01-15T02:33:26;96159.84;;;0.04
71960;BMP280;59832;51.146;14.024;2024-01-15T02:35:52;96159.84;;;0.04
71960;BMP280;59832;51.146;14.024;2024-01-15T02:38:19;96147.03;;;0.05
71960;BMP280;59832;51.146;14.024;2024-01-15T02:40:46;96150.25;;;0.06
71960;BMP280;59832;51.146;14.024;2024-01-15T02:43:13;96148.91;;;-0.04
71960;BMP280;59832;51.146;14.024;2024-01-15T02:45:40;96130.78;;;-0.13
71960;BMP280;59832;51.146;14.024;2024-01-15T02:48:06;96150.78;;;-0.25
71960;BMP280;59832;51.146;14.024;2024-01-15T02:50:33;96137.25;;;-0.37
71960;BMP280;59832;51.146;14.024;2024-01-15T02:52:59;96143.59;;;-0.39
71960;BMP280;59832;51.146;14.024;2024-01-15T02:55:26;96137.53;;;-0.38
71960;BMP280;59832;51.146;14.024;2024-01-15T02:57:55;96132.03;;;-0.44
71960;BMP280;59832;51.146;14.024;2024-01-15T03:00:22;96131.09;;;-0.39
71960;BMP280;59832;51.146;14.024;2024-01-15T03:02:50;96132.47;;;-0.29
71960;BMP280;59832;51.146;14.024;2024-01-15T03:05:17;96127.47;;;-0.29
71960;BMP280;59832;51.146;14.024;2024-01-15T03:07:43;96132.78;;;-0.31
71960;BMP280;59832;51.146;14.024;2024-01-15T03:10:10;96124.44;;;-0.23
71960;BMP280;59832;51.146;14.024;2024-01-15T03:12:36;96129.75;;;-0.12
71960;BMP280;59832;51.146;14.024;2024-01-15T03:15:03;96107.13;;;-0.16
71960;BMP280;59832;51.146;14.024;2024-01-15T03:17:30;96115.38;;;-0.15
71960;BMP280;59832;51.146;14.024;2024-01-15T03:19:56;96129.75;;;-0.12
71960;BMP280;59832;51.146;14.024;2024-01-15T03:22:23;96119.88;;;-0.21
71960;BMP280;59832;51.146;14.024;2024-01-15T03:24:49;96125.06;;;-0.14
71960;BMP280;59832;51.146;14.024;2024-01-15T03:27:16;96123.19;;;-0.17
71960;BMP280;59832;51.146;14.024;2024-01-15T03:29:42;96113.50;;;-0.18
71960;BMP280;59832;51.146;14.024;2024-01-15T03:32:09;96115.38;;;-0.15
71960;BMP280;59832;51.146;14.024;2024-01-15T03:34:35;96117.88;;;-0.15
71960;BMP280;59832;51.146;14.024;2024-01-15T03:37:02;96113.59;;;-0.15
71960;BMP280;59832;51.146;14.024;2024-01-15T03:39:29;96118.41;;;-0.22
71960;BMP280;59832;51.146;14.024;2024-01-15T03:41:56;96130.28;;;-0.19
71960;BMP280;59832;51.146;14.024;2024-01-15T03:44:22;96115.28;;;-0.19
71960;BMP280;59832;51.146;14.024;2024-01-15T03:46:49;96123.94;;;-0.28
71960;BMP280;59832;51.146;14.024;2024-01-15T03:49:15;96127.16;;;-0.28
71960;BMP280;59832;51.146;14.024;2024-01-15T03:51:42;96118.38;;;-0.34
71960;BMP280;59832;51.146;14.024;2024-01-15T03:54:08;96115.72;;;-0.29
71960;BMP280;59832;51.146;14.024;2024-01-15T03:56:35;96116.31;;;-0.32
71960;BMP280;59832;51.146;14.024;2024-01-15T03:59:01;96124.56;;;-0.31
71960;BMP280;59832;51.146;14.024;2024-01-15T04:01:28;96114.31;;;-0.39
71960;BMP280;59832;51.146;14.024;2024-01-15T04:03:55;96115.16;;;-0.47
71960;BMP280;59832;51.146;14.024;2024-01-15T04:06:21;96119.31;;;-0.51
71960;BMP280;59832;51.146;14.024;2024-01-15T04:08:48;96118.81;;;-0.44
71960;BMP280;59832;51.146;14.024;2024-01-15T04:11:14;96115.47;;;-0.48
71960;BMP280;59832;51.146;14.024;2024-01-15T04:13:40;96112.97;;;-0.48
71960;BMP280;59832;51.146;14.024;2024-01-15T04:16:08;96127.34;;;-0.45
71960;BMP280;59832;51.146;14.024;2024-01-15T04:18:34;96116.31;;;-0.44
71960;BMP280;59832;51.146;14.024;2024-01-15T04:21:04;96112.25;;;-0.49
71960;BMP280;59832;51.146;14.024;2024-01-15T04:23:30;96115.59;;;-0.45
71960;BMP280;59832;51.146;14.024;2024-01-15T04:25:57;96114.22;;;-0.54
71960;BMP280;59832;51.146;14.024;2024-01-15T04:28:23;96094.88;;;-0.45
71960;BMP280;59832;51.146;14.024;2024-01-15T04:30:50;96103.09;;;-0.45
71960;BMP280;59832;51.146;14.024;2024-01-15T04:33:16;96113.59;;;-0.51
71960;BMP280;59832;51.146;14.024;2024-01-15T04:35:43;96101.44;;;-0.53
71960;BMP280;59832;51.146;14.024;2024-01-15T04:38:09;96096.31;;;-0.56
71960;BMP280;59832;51.146;14.024;2024-01-15T04:40:36;96098.81;;;-0.56
71960;BMP280;59832;51.146;14.024;2024-01-15T04:43:02;96094.97;;;-0.54
71960;BMP280;59832;51.146;14.024;2024-01-15T04:45:29;96087.47;;;-0.54
71960;BMP280;59832;51.146;14.024;2024-01-15T04:47:56;96103.59;;;-0.51
71960;BMP280;59832;51.146;14.024;2024-01-15T04:50:23;96097.16;;;-0.52
71960;BMP280;59832;51.146;14.024;2024-01-15T04:52:50;96097.47;;;-0.54
71960;BMP280;59832;51.146;14.024;2024-01-15T04:55:16;96103.81;;;-0.56
71960;BMP280;59832;51.146;14.024;2024-01-15T04:57:43;96112.75;;;-0.55
71960;BMP280;59832;51.146;14.024;2024-01-15T05:00:10;96096.63;;;-0.58
71960;BMP280;59832;51.146;14.024;2024-01-15T05:02:37;96105.06;;;-0.62
71960;BMP280;59832;51.146;14.024;2024-01-15T05:05:04;96099.13;;;-0.58
71960;BMP280;59832;51.146;14.024;2024-01-15T05:07:30;96111.09;;;-0.51
71960;BMP280;59832;51.146;14.024;2024-01-15T05:09:56;96101.31;;;-0.56
71960;BMP280;59832;51.146;14.024;2024-01-15T05:12:23;96100.28;;;-0.55
71960;BMP280;59832;51.146;14.024;2024-01-15T05:14:49;96104.84;;;-0.57
71960;BMP280;59832;51.146;14.024;2024-01-15T05:17:16;96098.63;;;-0.63
71960;BMP280;59832;51.146;14.024;2024-01-15T05:19:42;96095.81;;;-0.62
71960;BMP280;59832;51.146;14.024;2024-01-15T05:22:09;96115.25;;;-0.67
71960;BMP280;59832;51.146;14.024;2024-01-15T05:24:35;96115.56;;;-0.69
71960;BMP280;59832;51.146;14.024;2024-01-15T05:27:02;96112.53;;;-0.75
71960;BMP280;59832;51.146;14.024;2024-01-15T05:29:28;96117.75;;;-0.67
71960;BMP280;59832;51.146;14.024;2024-01-15T05:31:55;96125.75;;;-0.74
71960;BMP280;59832;51.146;14.024;2024-01-15T05:34:24;96119.22;;;-0.79
71960;BMP280;59832;51.146;14.024;2024-01-15T05:36:51;96120.97;;;-0.79
71960;BMP280;59832;51.146;14.024;2024-01-15T05:39:17;96121.19;;;-0.72
71960;BMP280;59832;51.146;14.024;2024-01-15T05:41:47;96124.13;;;-0.70
71960;BMP280;59832;51.146;14.024;2024-01-15T05:44:13;96128.69;;;-0.72
71960;BMP280;59832;51.146;14.024;2024-01-15T05:46:40;96123.38;;;-0.70
71960;BMP280;59832;51.146;14.024;2024-01-15T05:49:07;96121.63;;;-0.70
71960;BMP280;59832;51.146;14.024;2024-01-15T05:51:33;96128.38;;;-0.70
71960;BMP280;59832;51.146;14.024;2024-01-15T05:54:00;96137.72;;;-0.67
71960;BMP280;59832;51.146;14.024;2024-01-15T05:56:26;96125.66;;;-0.65
71960;BMP280;59832;51.146;14.024;2024-01-15T05:58:53;96124.63;;;-0.64
71960;BMP280;59832;51.146;14.024;2024-01-15T06:01:19;96116.53;;;-0.61
71960;BMP280;59832;51.146;14.024;2024-01-15T06:03:46;96118.06;;;-0.57
71960;BMP280;59832;51.146;14.024;2024-01-15T06:06:12;96101.53;;;-0.61
71960;BMP280;59832;51.146;14.024;2024-01-15T06:08:39;96127.94;;;-0.60
71960;BMP280;59832;51.146;14.024;2024-01-15T06:11:06;96117.25;;;-0.61
71960;BMP280;59832;51.146;14.024;2024-01-15T06:13:33;96113.81;;;-0.56
71960;BMP280;59832;51.146;14.024;2024-01-15T06:15:59;96110.88;;;-0.58
71960;BMP280;59832;51.146;14.024;2024-01-15T06:18:26;96108.28;;;-0.62
71960;BMP280;59832;51.146;14.024;2024-01-15T06:20:53;96119.53;;;-0.56
71960;BMP280;59832;51.146;14.024;2024-01-15T06:23:19;96117.13;;;-0.64
71960;BMP280;59832;51.146;14.024;2024-01-15T06:25:47;96105.16;;;-0.59
71960;BMP280;59832;51.146;14.024;2024-01-15T06:28:13;96104.53;;;-0.56
71960;BMP280;59832;51.146;14.024;2024-01-15T06:30:40;96105.16;;;-0.59
71960;BMP280;59832;51.146;14.024;2024-01-15T06:33:06;96111.31;;;-0.56
71960;BMP280;59832;51.146;14.024;2024-01-15T06:35:33;96105.78;;;-0.62
71960;BMP280;59832;51.146;14.024;2024-01-15T06:38:00;96106.09;;;-0.63
71960;BMP280;59832;51.146;14.024;2024-01-15T06:40:27;96106.94;;;-0.59
71960;BMP280;59832;51.146;14.024;2024-01-15T06:42:53;96115.16;;;-0.59
71960;BMP280;59832;51.146;14.024;2024-01-15T06:45:20;96111.41;;;-0.65
71960;BMP280;59832;51.146;14.024;2024-01-15T06:47:46;96116.19;;;-0.60
71960;BMP280;59832;51.146;14.024;2024-01-15T06:50:13;96115.66;;;-0.65
71960;BMP280;59832;51.146;14.024;2024-01-15T06:52:39;96110.16;;;-0.59
71960;BMP280;59832;51.146;14.024;2024-01-15T06:55:06;96121.91;;;-0.59
71960;BMP280;59832;51.146;14.024;2024-01-15T06:57:32;96116.19;;;-0.60
71960;BMP280;59832;51.146;14.024;2024-01-15T06:59:59;96113.50;;;-0.55
71960;BMP280;59832;51.146;14.024;2024-01-15T07:02:25;96121.59;;;-0.58
71960;BMP280;59832;51.146;14.024;2024-01-15T07:04:53;96117.25;;;-0.61
71960;BMP280;59832;51.146;14.024;2024-01-15T07:07:19;96108.38;;;-0.58
71960;BMP280;59832;51.146;14.024;2024-01-15T07:09:46;96116.72;;;-0.54
71960;BMP280;59832;51.146;14.024;2024-01-15T07:12:12;96097.78;;;-0.55
71960;BMP280;59832;51.146;14.024;2024-01-15T07:14:39;96117.16;;;-0.52
71960;BMP280;59832;51.146;14.024;2024-01-15T07:17:05;96116.81;;;-0.51
71960;BMP280;59832;51.146;14.024;2024-01-15T07:19:32;96130.97;;;-0.55
71960;BMP280;59832;51.146;14.024;2024-01-15T07:21:59;96113.38;;;-0.58
71960;BMP280;59832;51.146;14.024;2024-01-15T07:24:26;96134.22;;;-0.54
71960;BMP280;59832;51.146;14.024;2024-01-15T07:26:53;96135.78;;;-0.62
71960;BMP280;59832;51.146;14.024;2024-01-15T07:29:19;96134.84;;;-0.69
71960;BMP280;59832;51.146;14.024;2024-01-15T07:31:49;96136.19;;;-0.72
71960;BMP280;59832;51.146;14.024;2024-01-15T07:34:17;96145.31;;;-0.76
71960;BMP280;59832;51.146;14.024;2024-01-15T07:36:44;96151.34;;;-0.77
71960;BMP280;59832;51.146;14.024;2024-01-15T07:39:11;96149.56;;;-0.77
71960;BMP280;59832;51.146;14.024;2024-01-15T07:41:38;96158.97;;;-0.73
71960;BMP280;59832;51.146;14.024;2024-01-15T07:44:05;96153.66;;;-0.72
71960;BMP280;59832;51.146;14.024;2024-01-15T07:46:31;96160.13;;;-0.71
71960;BMP280;59832;51.146;14.024;2024-01-15T07:48:58;96151.59;;;-0.70
71960;BMP280;59832;51.146;14.024;2024-01-15T07:51:25;96151.59;;;-0.70
71960;BMP280;59832;51.146;14.024;2024-01-15T07:53:53;96152.94;;;-0.72
71960;BMP280;59832;51.146;14.024;2024-01-15T07:56:20;96156.88;;;-0.71
71960;BMP280;59832;51.146;14.024;2024-01-15T07:58:47;96137.22;;;-0.73
71960;BMP280;59832;51.146;14.024;2024-01-15T08:01:14;96144.09;;;-0.70
71960;BMP280;59832;51.146;14.024;2024-01-15T08:03:40;96147.06;;;-0.77
71960;BMP280;59832;51.146;14.024;2024-01-15T08:06:07;96150.84;;;-0.70
71960;BMP280;59832;51.146;14.024;2024-01-15T08:08:37;96158.22;;;-0.74
71960;BMP280;59832;51.146;14.024;2024-01-15T08:11:03;96163.94;;;-0.73
71960;BMP280;59832;51.146;14.024;2024-01-15T08:13:30;96155.50;;;-0.69
71960;BMP280;59832;51.146;14.024;2024-01-15T08:15:57;96161.44;;;-0.73
71960;BMP280;59832;51.146;14.024;2024-01-15T08:18:23;96156.56;;;-0.70
71960;BMP280;59832;51.146;14.024;2024-01-15T08:20:50;96156.88;;;-0.71
71960;BMP280;59832;51.146;14.024;2024-01-15T08:23:17;96157.09;;;-0.64
71960;BMP280;59832;51.146;14.024;2024-01-15T08:25:44;96169.59;;;-0.64
71960;BMP280;59832;51.146;14.024;2024-01-15T08:28:10;96171.13;;;-0.60
71960;BMP280;59832;51.146;14.024;2024-01-15T08:30:37;96163.97;;;-0.61
71960;BMP280;59832;51.146;14.024;2024-01-15T08:33:04;96171.88;;;-0.59
71960;BMP280;59832;51.146;14.024;2024-01-15T08:35:44;96162.59;;;-0.59
71960;BMP280;59832;51.146;14.024;2024-01-15T08:38:11;96162.00;;;-0.56
71960;BMP280;59832;51.146;14.024;2024-01-15T08:40:38;96168.88;;;-0.53
71960;BMP280;59832;51.146;14.024;2024-01-15T08:43:04;96168.78;;;-0.44
71960;BMP280;59832;51.146;14.024;2024-01-15T08:45:32;96176.59;;;-0.46
71960;BMP280;59832;51.146;14.024;2024-01-15T08:48:00;96180.84;;;-0.34
71960;BMP280;59832;51.146;14.024;2024-01-15T08:50:27;96176.72;;;-0.30
71960;BMP280;59832;51.146;14.024;2024-01-15T08:52:53;96177.97;;;-0.24
71960;BMP280;59832;51.146;14.024;2024-01-15T08:55:20;96168.28;;;-0.25
71960;BMP280;59832;51.146;14.024;2024-01-15T08:57:49;96167.75;;;-0.31
71960;BMP280;59832;51.146;14.024;2024-01-15T09:00:16;96177.75;;;-0.31
71960;BMP280;59832;51.146;14.024;2024-01-15T09:02:43;96171.31;;;-0.20
71960;BMP280;59832;51.146;14.024;2024-01-15T09:05:10;96173.16;;;-0.17
71960;BMP280;59832;51.146;14.024;2024-01-15T09:07:36;96177.56;;;-0.14
71960;BMP280;59832;51.146;14.024;2024-01-15T09:10:03;96156.94;;;-0.11
71960;BMP280;59832;51.146;14.024;2024-01-15T09:12:29;96176.84;;;-0.02
71960;BMP280;59832;51.146;14.024;2024-01-15T09:14:56;96174.03;;;-0.01
71960;BMP280;59832;51.146;14.024;2024-01-15T09:17:22;96171.06;;;0.10
71960;BMP280;59832;51.146;14.024;2024-01-15T09:19:54;96173.38;;;0.15
71960;BMP280;59832;51.146;14.024;2024-01-15T09:22:20;96177.84;;;0.21
71960;BMP280;59832;51.146;14.024;2024-01-15T09:24:47;96202.78;;;0.46
71960;BMP280;59832;51.146;14.024;2024-01-15T09:27:14;96184.41;;;0.54
71960;BMP280;59832;51.146;14.024;2024-01-15T09:29:41;96187.81;;;0.61
71960;BMP280;59832;51.146;14.024;2024-01-15T09:32:09;96179.59;;;0.61
71960;BMP280;59832;51.146;14.024;2024-01-15T09:34:35;96175.81;;;0.67
71960;BMP280;59832;51.146;14.024;2024-01-15T09:37:02;96179.59;;;0.89
71960;BMP280;59832;51.146;14.024;2024-01-15T09:39:31;96171.31;;;1.00
71960;BMP280;59832;51.146;14.024;2024-01-15T09:41:58;96169.03;;;0.95
71960;BMP280;59832;51.146;14.024;2024-01-15T09:44:25;96180.41;;;1.21
71960;BMP280;59832;51.146;14.024;2024-01-15T09:46:53;96166.56;;;1.42
71960;BMP280;59832;51.146;14.024;2024-01-15T09:49:21;96166.53;;;1.58
71960;BMP280;59832;51.146;14.024;2024-01-15T09:51:48;96163.63;;;1.56
71960;BMP280;59832;51.146;14.024;2024-01-15T09:54:28;96176.91;;;1.25
71960;BMP280;59832;51.146;14.024;2024-01-15T09:56:55;96172.31;;;1.27
71960;BMP280;59832;51.146;14.024;2024-01-15T09:59:22;96160.31;;;1.05
71960;BMP280;59832;51.146;14.024;2024-01-15T10:01:50;96163.06;;;1.00
71960;BMP280;59832;51.146;14.024;2024-01-15T10:04:16;96162.03;;;1.01
71960;BMP280;59832;51.146;14.024;2024-01-15T10:06:45;96155.00;;;1.06
71960;BMP280;59832;51.146;14.024;2024-01-15T10:09:12;96148.44;;;1.02
71960;BMP280;59832;51.146;14.024;2024-01-15T10:11:41;96160.06;;;0.94
71960;BMP280;59832;51.146;14.024;2024-01-15T10:14:09;96160.47;;;0.96
71960;BMP280;59832;51.146;14.024;2024-01-15T10:16:39;96165.81;;;0.95
71960;BMP280;59832;51.146;14.024;2024-01-15T10:19:05;96153.81;;;0.88
71960;BMP280;59832;51.146;14.024;2024-01-15T10:21:32;96158.81;;;0.72
71960;BMP280;59832;51.146;14.024;2024-01-15T10:24:03;96153.63;;;0.65
71960;BMP280;59832;51.146;14.024;2024-01-15T10:26:31;96159.25;;;0.62
71960;BMP280;59832;51.146;14.024;2024-01-15T10:28:58;96158.38;;;0.70
71960;BMP280;59832;51.146;14.024;2024-01-15T10:31:27;96154.75;;;0.68
71960;BMP280;59832;51.146;14.024;2024-01-15T10:34:10;96147.44;;;0.75
71960;BMP280;59832;51.146;14.024;2024-01-15T10:36:41;96151.91;;;0.69
71960;BMP280;59832;51.146;14.024;2024-01-15T10:39:08;96151.84;;;0.66
71960;BMP280;59832;51.146;14.024;2024-01-15T10:41:34;96149.50;;;0.73
71960;BMP280;59832;51.146;14.024;2024-01-15T10:44:01;96144.59;;;0.76
71960;BMP280;59832;51.146;14.024;2024-01-15T10:46:28;96145.38;;;0.65
71960;BMP280;59832;51.146;14.024;2024-01-15T10:48:55;96147.16;;;0.64
71960;BMP280;59832;51.146;14.024;2024-01-15T10:51:22;96145.69;;;0.63
71960;BMP280;59832;51.146;14.024;2024-01-15T10:53:49;96140.38;;;0.65
71960;BMP280;59832;51.146;14.024;2024-01-15T10:56:17;96143.13;;;0.60
71960;BMP280;59832;51.146;14.024;2024-01-15T10:58:45;96148.72;;;0.69
71960;BMP280;59832;51.146;14.024;2024-01-15T11:01:12;96137.97;;;0.68
71960;BMP280;59832;51.146;14.024;2024-01-15T11:03:39;96144.19;;;0.74
71960;BMP280;59832;51.146;14.024;2024-01-15T11:06:16;96138.69;;;0.69
71960;BMP280;59832;51.146;14.024;2024-01-15T11:08:49;96145.13;;;0.70
71960;BMP280;59832;51.146;14.024;2024-01-15T11:11:16;96139.19;;;0.74
71960;BMP280;59832;51.146;14.024;2024-01-15T11:13:46;96143.19;;;0.91
71960;BMP280;59832;51.146;14.024;2024-01-15T11:16:14;96131.06;;;0.93
71960;BMP280;59832;51.146;14.024;2024-01-15T11:18:43;96135.41;;;0.96
71960;BMP280;59832;51.146;14.024;2024-01-15T11:23:56;96136.00;;;1.21
71960;BMP280;59832;51.146;14.024;2024-01-15T11:26:34;96116.13;;;1.44
71960;BMP280;59832;51.146;14.024;2024-01-15T11:29:06;96127.31;;;1.66
71960;BMP280;59832;51.146;14.024;2024-01-15T11:34:07;96120.28;;;1.71
71960;BMP280;59832;51.146;14.024;2024-01-15T11:41:55;96115.19;;;2.22
71960;BMP280;59832;51.146;14.024;2024-01-15T11:44:22;96115.25;;;2.25
71960;BMP280;59832;51.146;14.024;2024-01-15T11:52:04;96110.28;;;1.40
71960;BMP280;59832;51.146;14.024;2024-01-15T11:54:32;96103.22;;;1.26
71960;BMP280;59832;51.146;14.024;2024-01-15T11:57:04;96106.44;;;1.27
71960;BMP280;59832;51.146;14.024;2024-01-15T11:59:35;96108.63;;;1.28
71960;BMP280;59832;51.146;14.024;2024-01-15T12:02:02;96102.22;;;1.31
71960;BMP280;59832;51.146;14.024;2024-01-15T12:04:29;96096.84;;;1.29
71960;BMP280;59832;51.146;14.024;2024-01-15T12:06:55;96099.88;;;1.38
71960;BMP280;59832;51.146;14.024;2024-01-15T12:09:22;96099.88;;;1.38
71960;BMP280;59832;51.146;14.024;2024-01-15T12:11:56;96087.94;;;1.31
71960;BMP280;59832;51.146;14.024;2024-01-15T12:14:26;96102.31;;;1.19
71960;BMP280;59832;51.146;14.024;2024-01-15T12:16:54;96107.81;;;1.24
71960;BMP280;59832;51.146;14.024;2024-01-15T12:19:20;96095.13;;;1.33
71960;BMP280;59832;51.146;14.024;2024-01-15T12:21:47;96107.25;;;1.31
71960;BMP280;59832;51.146;14.024;2024-01-15T12:24:14;96102.44;;;1.41
71960;BMP280;59832;51.146;14.024;2024-01-15T12:26:41;96091.88;;;1.32
71960;BMP280;59832;51.146;14.024;2024-01-15T12:29:07;96099.00;;;1.30
71960;BMP280;59832;51.146;14.024;2024-01-15T12:31:34;96101.59;;;1.18
71960;BMP280;59832;51.146;14.024;2024-01-15T12:34:01;96093.41;;;1.21
71960;BMP280;59832;51.146;14.024;2024-01-15T12:36:30;96099.25;;;1.25
71960;BMP280;59832;51.146;14.024;2024-01-15T12:39:00;96106.03;;;1.25
71960;BMP280;59832;51.146;14.024;2024-01-15T12:41:27;96100.13;;;1.17
71960;BMP280;59832;51.146;14.024;2024-01-15T12:43:53;96098.28;;;1.14
71960;BMP280;59832;51.146;14.024;2024-01-15T12:46:20;96109.34;;;1.13
71960;BMP280;59832;51.146;14.024;2024-01-15T12:48:46;96088.97;;;0.99
71960;BMP280;59832;51.146;14.024;2024-01-15T12:51:13;96094.97;;;0.94
71960;BMP280;59832;51.146;14.024;2024-01-15T12:53:41;96105.94;;;0.90
71960;BMP280;59832;51.146;14.024;2024-01-15T12:56:08;96097.69;;;0.89
71960;BMP280;59832;51.146;14.024;2024-01-15T12:58:34;96107.63;;;0.86
71960;BMP280;59832;51.146;14.024;2024-01-15T13:01:01;96101.31;;;0.76
71960;BMP280;59832;51.146;14.024;2024-01-15T13:03:27;96106.31;;;0.76
71960;BMP280;59832;51.146;14.024;2024-01-15T13:05:54;96109.47;;;0.89
71960;BMP280;59832;51.146;14.024;2024-01-15T13:08:20;96102.78;;;0.93
71960;BMP280;59832;51.146;14.024;2024-01-15T13:10:50;96096.25;;;1.04
71960;BMP280;59832;51.146;14.024;2024-01-15T13:13:18;96098.75;;;0.88
71960;BMP280;59832;51.146;14.024;2024-01-15T13:15:44;96100.94;;;0.90
71960;BMP280;59832;51.146;14.024;2024-01-15T13:18:11;96097.13;;;0.80
71960;BMP280;59832;51.146;14.024;2024-01-15T13:20:37;96103.44;;;0.90
71960;BMP280;59832;51.146;14.024;2024-01-15T13:23:04;96096.53;;;0.87
71960;BMP280;59832;51.146;14.024;2024-01-15T13:25:30;96106.56;;;0.87
71960;BMP280;59832;51.146;14.024;2024-01-15T13:27:57;96099.41;;;0.85
71960;BMP280;59832;51.146;14.024;2024-01-15T13:30:23;96092.34;;;0.75
71960;BMP280;59832;51.146;14.024;2024-01-15T13:32:50;96093.50;;;0.77
71960;BMP280;59832;51.146;14.024;2024-01-15T13:35:16;96097.03;;;0.76
71960;BMP280;59832;51.146;14.024;2024-01-15T13:37:43;96105.28;;;0.77
71960;BMP280;59832;51.146;14.024;2024-01-15T13:40:10;96109.28;;;0.66
71960;BMP280;59832;51.146;14.024;2024-01-15T13:42:42;96105.88;;;0.58
71960;BMP280;59832;51.146;14.024;2024-01-15T13:45:09;96110.72;;;0.51
71960;BMP280;59832;51.146;14.024;2024-01-15T13:47:35;96114.16;;;0.47
71960;BMP280;59832;51.146;14.024;2024-01-15T13:50:04;96117.88;;;0.53
71960;BMP280;59832;51.146;14.024;2024-01-15T13:52:30;96124.16;;;0.47
71960;BMP280;59832;51.146;14.024;2024-01-15T13:54:57;96124.09;;;0.43
71960;BMP280;59832;51.146;14.024;2024-01-15T13:57:23;96126.81;;;0.38
71960;BMP280;59832;51.146;14.024;2024-01-15T13:59:50;96130.75;;;0.39
71960;BMP280;59832;51.146;14.024;2024-01-15T14:02:16;96129.00;;;0.39
71960;BMP280;59832;51.146;14.024;2024-01-15T14:04:47;96119.28;;;0.38
71960;BMP280;59832;51.146;14.024;2024-01-15T14:07:14;96128.81;;;0.32
71960;BMP280;59832;51.146;14.024;2024-01-15T14:09:41;96141.09;;;0.37
71960;BMP280;59832;51.146;14.024;2024-01-15T14:12:08;96146.31;;;0.32
71960;BMP280;59832;51.146;14.024;2024-01-15T14:14:34;96161.00;;;0.34
71960;BMP280;59832;51.146;14.024;2024-01-15T14:17:01;96156.09;;;0.37
71960;BMP280;59832;51.146;14.024;2024-01-15T14:19:27;96153.16;;;0.35